Terminal Aerodrome Forecast
Issued by NWS Wilmington, OH

Current Version | Previous Version | Graphics & Text | Print | Product List | Glossary On
Versions: 1 2 3 4 5 6 7 8 9 10 11 12 13 14 15 16 17 18 19 20 21 22 23 24 25 26
000
FTUS41 KILN 231007 AAC
TAFILN
TAF AMD
KILN 231007Z 2310/2406 21008KT P6SM SCT027 OVC045
     FM231500 22009KT P6SM BKN027
     FM240000 VRB03KT P6SM BKN026
     FM240300 VRB03KT P6SM BKN035=

USA.gov is the U.S. government's official web portal to all federal, state and local government web resources and services.